Stephen L. — WDE7070 — position and weather

sailwx.info

Track history (hours):
 
Tides and Currents Weather Stations Pressure Air Temp Water Temp Dewpoint Dewpoint Depression Visibility Wind Speed Wind Dir Waves Ship Positions

Stephen L.

Owner: TRIPLE S MARINE, LLC, MORGAN CITY, LA. More information available from US FCC via Universal Licensing System and Coast Guard Vessel Documentation Center.

Last reported at 2017-Jan-19 16:33 UTC. Time now 2017-Jan-19 16:58 UTC.
Position N 30°05' W 093°17'.

Length 20 m.

Type: Ship. MMSI: 367388580.

Date/timePositionNaut miles runAvg speedWind from/ knotsBaromVisibWave heightAir tempDewpointWater temp
2017-Jan-19 16:33N 30°05' W 093°17'0 0.0
2017-Jan-19 15:34N 30°05' W 093°17'0 0.0
2017-Jan-19 14:34N 30°05' W 093°17'0 0.2
2017-Jan-19 13:33N 30°05' W 093°17'0 0.0
2017-Jan-19 12:33N 30°05' W 093°17'0 0.0
2017-Jan-19 11:34N 30°05' W 093°17'0 0.0
2017-Jan-19 10:33N 30°05' W 093°17'0 0.0
2017-Jan-19 09:33N 30°05' W 093°17'0 0.0
2017-Jan-19 08:34N 30°05' W 093°17'0 0.0
2017-Jan-19 07:34N 30°05' W 093°17'0 0.0
2017-Jan-19 06:34N 30°05' W 093°17'0 0.0
2017-Jan-19 05:34N 30°05' W 093°17'0 0.0
2017-Jan-19 04:33N 30°05' W 093°17'0 0.0
2017-Jan-19 03:34N 30°05' W 093°17'0 0.0
2017-Jan-19 02:33N 30°05' W 093°17'0 0.0
2017-Jan-19 01:34N 30°05' W 093°17'0 0.0
2017-Jan-19 00:33N 30°05' W 093°17'0 0.0
2017-Jan-18 23:34N 30°05' W 093°17'0 0.0
2017-Jan-18 22:34N 30°05' W 093°17'0 0.1
2017-Jan-18 21:33N 30°05' W 093°17'0 0.0
2017-Jan-18 20:33N 30°05' W 093°17'4 3.6
2017-Jan-18 19:33N 30°02' W 093°15'3 2.6
2017-Jan-18 18:33N 29°60' W 093°13'6 5.5
2017-Jan-18 17:33N 29°56' W 093°08'34 3.0
2017-Jan-18 06:24N 29°54' W 092°29'4 4.9
2017-Jan-18 05:33N 29°53' W 092°24'5 5.2
2017-Jan-18 04:33N 29°50' W 092°19'4 4.5
2017-Jan-18 03:33N 29°48' W 092°15'4 3.6
2017-Jan-18 02:33N 29°47' W 092°11'4 4.3
2017-Jan-18 01:33N 29°48' W 092°06'6 5.9
2017-Jan-18 00:33N 29°50' W 091°60'57 1.8
2017-Jan-16 16:25N 29°34' W 090°56'5 6.1
2017-Jan-16 15:33N 29°32' W 090°51'5 5.1
2017-Jan-16 14:33N 29°34' W 090°45'4 3.6
2017-Jan-16 13:33N 29°36' W 090°43'1 1.3
2017-Jan-16 12:33N 29°36' W 090°41'4 4.1
2017-Jan-16 11:33N 29°35' W 090°37'2 1.8
2017-Jan-16 10:33N 29°34' W 090°35'0 0.0
2017-Jan-16 09:33N 29°34' W 090°35'0 0.0
2017-Jan-16 08:33N 29°34' W 090°35'0 0.0
2017-Jan-16 07:33N 29°34' W 090°35'1 1.3
2017-Jan-16 06:33N 29°34' W 090°33'2 0.0
2017-Jan-14 23:12N 29°34' W 090°32'0 0.5
2017-Jan-14 22:28N 29°33' W 090°32'  
2017-Jan-11 08:14N 29°34' W 090°33'5 7.5
2017-Jan-11 07:33N 29°36' W 090°39'5 4.7
2017-Jan-11 06:34N 29°34' W 090°44'9 0.7
2017-Jan-10 17:33N 29°33' W 090°54'7 7.1
2017-Jan-10 16:33N 29°32' W 090°46'4 4.5
2017-Jan-10 15:33N 29°35' W 090°43'3 3.0
2017-Jan-10 14:33N 29°36' W 090°39'6 6.3
2017-Jan-10 13:33N 29°34' W 090°32'  
Track history (hours):
 
Tides and Currents Weather Stations Pressure Air Temp Water Temp Dewpoint Dewpoint Depression Visibility Wind Speed Wind Dir Waves Ship Positions

Stephen L.

Owner: TRIPLE S MARINE, LLC, MORGAN CITY, LA. More information available from US FCC via Universal Licensing System and Coast Guard Vessel Documentation Center.

Last reported at 2017-Jan-19 16:33 UTC. Time now 2017-Jan-19 16:58 UTC.
Position N 30°05' W 093°17'.

Length 20 m.

Type: Ship. MMSI: 367388580.

Date/timePositionNaut miles runAvg speedWind from/ knotsBaromVisibWave heightAir tempDewpointWater temp
2017-Jan-19 16:33N 30°05' W 093°17'0 0.0
2017-Jan-19 15:34N 30°05' W 093°17'0 0.0
2017-Jan-19 14:34N 30°05' W 093°17'0 0.2
2017-Jan-19 13:33N 30°05' W 093°17'0 0.0
2017-Jan-19 12:33N 30°05' W 093°17'0 0.0
2017-Jan-19 11:34N 30°05' W 093°17'0 0.0
2017-Jan-19 10:33N 30°05' W 093°17'0 0.0
2017-Jan-19 09:33N 30°05' W 093°17'0 0.0
2017-Jan-19 08:34N 30°05' W 093°17'0 0.0
2017-Jan-19 07:34N 30°05' W 093°17'0 0.0
2017-Jan-19 06:34N 30°05' W 093°17'0 0.0
2017-Jan-19 05:34N 30°05' W 093°17'0 0.0
2017-Jan-19 04:33N 30°05' W 093°17'0 0.0
2017-Jan-19 03:34N 30°05' W 093°17'0 0.0
2017-Jan-19 02:33N 30°05' W 093°17'0 0.0
2017-Jan-19 01:34N 30°05' W 093°17'0 0.0
2017-Jan-19 00:33N 30°05' W 093°17'0 0.0
2017-Jan-18 23:34N 30°05' W 093°17'0 0.0
2017-Jan-18 22:34N 30°05' W 093°17'0 0.1
2017-Jan-18 21:33N 30°05' W 093°17'0 0.0
2017-Jan-18 20:33N 30°05' W 093°17'4 3.6
2017-Jan-18 19:33N 30°02' W 093°15'3 2.6
2017-Jan-18 18:33N 29°60' W 093°13'6 5.5
2017-Jan-18 17:33N 29°56' W 093°08'34 3.0
2017-Jan-18 06:24N 29°54' W 092°29'4 4.9
2017-Jan-18 05:33N 29°53' W 092°24'5 5.2
2017-Jan-18 04:33N 29°50' W 092°19'4 4.5
2017-Jan-18 03:33N 29°48' W 092°15'4 3.6
2017-Jan-18 02:33N 29°47' W 092°11'4 4.3
2017-Jan-18 01:33N 29°48' W 092°06'6 5.9
2017-Jan-18 00:33N 29°50' W 091°60'57 1.8
2017-Jan-16 16:25N 29°34' W 090°56'5 6.1
2017-Jan-16 15:33N 29°32' W 090°51'5 5.1
2017-Jan-16 14:33N 29°34' W 090°45'4 3.6
2017-Jan-16 13:33N 29°36' W 090°43'1 1.3
2017-Jan-16 12:33N 29°36' W 090°41'4 4.1
2017-Jan-16 11:33N 29°35' W 090°37'2 1.8
2017-Jan-16 10:33N 29°34' W 090°35'0 0.0
2017-Jan-16 09:33N 29°34' W 090°35'0 0.0
2017-Jan-16 08:33N 29°34' W 090°35'0 0.0
2017-Jan-16 07:33N 29°34' W 090°35'1 1.3
2017-Jan-16 06:33N 29°34' W 090°33'2 0.0
2017-Jan-14 23:12N 29°34' W 090°32'0 0.5
2017-Jan-14 22:28N 29°33' W 090°32'  
2017-Jan-11 08:14N 29°34' W 090°33'5 7.5
2017-Jan-11 07:33N 29°36' W 090°39'5 4.7
2017-Jan-11 06:34N 29°34' W 090°44'9 0.7
2017-Jan-10 17:33N 29°33' W 090°54'7 7.1
2017-Jan-10 16:33N 29°32' W 090°46'4 4.5
2017-Jan-10 15:33N 29°35' W 090°43'3 3.0
2017-Jan-10 14:33N 29°36' W 090°39'6 6.3
2017-Jan-10 13:33N 29°34' W 090°32'  

Dump ship's entire track history